sensor_id;sensor_type;location;lat;lon;timestamp;pressure;altitude;pressure_sealevel;temperature;humidity
69630;BME280;56857;52.212;5.496;2023-02-22T00:00:31;101616.50;;;7.19;100.00
69630;BME280;56857;52.212;5.496;2023-02-22T00:02:57;101613.31;;;7.16;100.00
69630;BME280;56857;52.212;5.496;2023-02-22T00:05:22;101614.25;;;7.15;100.00
69630;BME280;56857;52.212;5.496;2023-02-22T00:07:48;101609.22;;;7.12;100.00
69630;BME280;56857;52.212;5.496;2023-02-22T00:10:14;101612.84;;;7.11;100.00
69630;BME280;56857;52.212;5.496;2023-02-22T00:12:41;101617.38;;;7.09;100.00
69630;BME280;56857;52.212;5.496;2023-02-22T00:15:08;101611.88;;;7.12;100.00
69630;BME280;56857;52.212;5.496;2023-02-22T00:17:34;101611.75;;;7.13;100.00
69630;BME280;56857;52.212;5.496;2023-02-22T00:19:59;101612.59;;;7.14;100.00
69630;BME280;56857;52.212;5.496;2023-02-22T00:22:24;101610.78;;;7.14;100.00
69630;BME280;56857;52.212;5.496;2023-02-22T00:24:50;101614.25;;;7.15;100.00
69630;BME280;56857;52.212;5.496;2023-02-22T00:27:15;101612.31;;;7.17;100.00
69630;BME280;56857;52.212;5.496;2023-02-22T00:29:45;101605.41;;;7.16;100.00
69630;BME280;56857;52.212;5.496;2023-02-22T00:32:10;101610.19;;;7.11;100.00
69630;BME280;56857;52.212;5.496;2023-02-22T00:34:36;101609.47;;;7.09;100.00
69630;BME280;56857;52.212;5.496;2023-02-22T00:37:01;101606.28;;;7.05;100.00
69630;BME280;56857;52.212;5.496;2023-02-22T00:39:27;101604.72;;;7.03;100.00
69630;BME280;56857;52.212;5.496;2023-02-22T00:41:52;101613.50;;;7.03;100.00
69630;BME280;56857;52.212;5.496;2023-02-22T00:44:18;101606.53;;;7.02;100.00
69630;BME280;56857;52.212;5.496;2023-02-22T00:46:44;101602.94;;;7.03;100.00
69630;BME280;56857;52.212;5.496;2023-02-22T00:49:09;101608.22;;;7.03;100.00
69630;BME280;56857;52.212;5.496;2023-02-22T00:51:34;101606.41;;;7.04;100.00
69630;BME280;56857;52.212;5.496;2023-02-22T00:54:00;101597.53;;;7.05;100.00
69630;BME280;56857;52.212;5.496;2023-02-22T00:56:25;101600.06;;;7.06;100.00
69630;BME280;56857;52.212;5.496;2023-02-22T00:58:50;101597.41;;;7.06;100.00
69630;BME280;56857;52.212;5.496;2023-02-22T01:01:16;101592.00;;;7.08;100.00
69630;BME280;56857;52.212;5.496;2023-02-22T01:03:41;101589.50;;;7.06;100.00
69630;BME280;56857;52.212;5.496;2023-02-22T01:06:06;101587.97;;;7.04;100.00
69630;BME280;56857;52.212;5.496;2023-02-22T01:08:32;101584.59;;;7.02;100.00
69630;BME280;56857;52.212;5.496;2023-02-22T01:10:57;101570.59;;;7.01;100.00
69630;BME280;56857;52.212;5.496;2023-02-22T01:13:22;101572.97;;;7.04;100.00
69630;BME280;56857;52.212;5.496;2023-02-22T01:15:48;101565.91;;;7.05;100.00
69630;BME280;56857;52.212;5.496;2023-02-22T01:18:13;101571.31;;;7.03;100.00
69630;BME280;56857;52.212;5.496;2023-02-22T01:20:38;101567.97;;;7.01;100.00
69630;BME280;56857;52.212;5.496;2023-02-22T01:23:05;101567.13;;;7.01;100.00
69630;BME280;56857;52.212;5.496;2023-02-22T01:25:31;101563.66;;;7.00;100.00
69630;BME280;56857;52.212;5.496;2023-02-22T01:27:58;101566.41;;;6.99;100.00
69630;BME280;56857;52.212;5.496;2023-02-22T01:30:30;101566.56;;;6.97;100.00
69630;BME280;56857;52.212;5.496;2023-02-22T01:32:56;101560.56;;;6.95;100.00
69630;BME280;56857;52.212;5.496;2023-02-22T01:35:25;101550.84;;;6.95;100.00
69630;BME280;56857;52.212;5.496;2023-02-22T01:37:51;101557.09;;;6.94;100.00
69630;BME280;56857;52.212;5.496;2023-02-22T01:40:22;101554.47;;;6.94;100.00
69630;BME280;56857;52.212;5.496;2023-02-22T01:42:53;101548.47;;;6.92;100.00
69630;BME280;56857;52.212;5.496;2023-02-22T01:50:26;101555.00;;;6.77;100.00
69630;BME280;56857;52.212;5.496;2023-02-22T01:52:52;101549.75;;;6.77;100.00
69630;BME280;56857;52.212;5.496;2023-02-22T01:55:18;101544.59;;;6.76;100.00
69630;BME280;56857;52.212;5.496;2023-02-22T01:57:46;101542.66;;;6.78;100.00
69630;BME280;56857;52.212;5.496;2023-02-22T02:00:18;101537.66;;;6.74;100.00
69630;BME280;56857;52.212;5.496;2023-02-22T02:03:05;101540.28;;;6.74;100.00
69630;BME280;56857;52.212;5.496;2023-02-22T02:05:33;101531.69;;;6.72;100.00
69630;BME280;56857;52.212;5.496;2023-02-22T02:08:52;101526.69;;;6.69;100.00
69630;BME280;56857;52.212;5.496;2023-02-22T02:10:49;101527.38;;;6.71;100.00
69630;BME280;56857;52.212;5.496;2023-02-22T02:13:14;101538.75;;;6.72;100.00
69630;BME280;56857;52.212;5.496;2023-02-22T02:15:40;101531.13;;;6.69;100.00
69630;BME280;56857;52.212;5.496;2023-02-22T02:18:08;101527.03;;;6.65;100.00
69630;BME280;56857;52.212;5.496;2023-02-22T02:30:14;101511.91;;;6.46;100.00
69630;BME280;56857;52.212;5.496;2023-02-22T02:33:03;101512.16;;;6.43;100.00
69630;BME280;56857;52.212;5.496;2023-02-22T02:38:26;101503.81;;;6.38;100.00
69630;BME280;56857;52.212;5.496;2023-02-22T02:43:52;101497.97;;;6.34;100.00
69630;BME280;56857;52.212;5.496;2023-02-22T02:46:46;101498.22;;;6.31;100.00
69630;BME280;56857;52.212;5.496;2023-02-22T02:49:18;101498.09;;;6.33;100.00
69630;BME280;56857;52.212;5.496;2023-02-22T02:51:49;101489.59;;;6.29;100.00
69630;BME280;56857;52.212;5.496;2023-02-22T02:54:17;101484.59;;;6.26;100.00
69630;BME280;56857;52.212;5.496;2023-02-22T02:56:44;101486.63;;;6.22;100.00
69630;BME280;56857;52.212;5.496;2023-02-22T02:59:30;101488.81;;;6.17;100.00
69630;BME280;56857;52.212;5.496;2023-02-22T03:02:18;101486.66;;;6.11;100.00
69630;BME280;56857;52.212;5.496;2023-02-22T03:10:30;101473.06;;;6.06;100.00
69630;BME280;56857;52.212;5.496;2023-02-22T03:15:52;101464.19;;;6.07;100.00
69630;BME280;56857;52.212;5.496;2023-02-22T03:18:33;101474.72;;;6.07;100.00
69630;BME280;56857;52.212;5.496;2023-02-22T03:21:32;101470.53;;;6.04;100.00
69630;BME280;56857;52.212;5.496;2023-02-22T03:29:26;101474.25;;;6.02;100.00
69630;BME280;56857;52.212;5.496;2023-02-22T03:31:57;101473.81;;;5.97;100.00
69630;BME280;56857;52.212;5.496;2023-02-22T03:34:25;101470.44;;;5.95;100.00
69630;BME280;56857;52.212;5.496;2023-02-22T03:36:55;101469.63;;;5.94;100.00
69630;BME280;56857;52.212;5.496;2023-02-22T03:39:23;101462.78;;;5.92;100.00
69630;BME280;56857;52.212;5.496;2023-02-22T03:41:50;101463.59;;;5.92;100.00
69630;BME280;56857;52.212;5.496;2023-02-22T03:44:20;101455.94;;;5.89;100.00
69630;BME280;56857;52.212;5.496;2023-02-22T03:46:49;101456.91;;;5.88;100.00
69630;BME280;56857;52.212;5.496;2023-02-22T03:49:31;101452.38;;;5.90;100.00
69630;BME280;56857;52.212;5.496;2023-02-22T03:51:59;101449.03;;;5.88;100.00
69630;BME280;56857;52.212;5.496;2023-02-22T03:54:25;101455.38;;;5.86;100.00
69630;BME280;56857;52.212;5.496;2023-02-22T03:56:57;101450.34;;;5.82;100.00
69630;BME280;56857;52.212;5.496;2023-02-22T03:59:24;101444.97;;;5.84;100.00
69630;BME280;56857;52.212;5.496;2023-02-22T04:01:50;101444.25;;;5.82;100.00
69630;BME280;56857;52.212;5.496;2023-02-22T04:04:15;101436.50;;;5.80;100.00
69630;BME280;56857;52.212;5.496;2023-02-22T04:06:40;101436.75;;;5.77;100.00
69630;BME280;56857;52.212;5.496;2023-02-22T04:09:06;101437.69;;;5.76;100.00
69630;BME280;56857;52.212;5.496;2023-02-22T04:11:31;101436.03;;;5.75;100.00
69630;BME280;56857;52.212;5.496;2023-02-22T04:13:56;101433.53;;;5.74;100.00
69630;BME280;56857;52.212;5.496;2023-02-22T04:16:22;101431.00;;;5.72;100.00
69630;BME280;56857;52.212;5.496;2023-02-22T04:18:47;101432.81;;;5.72;100.00
69630;BME280;56857;52.212;5.496;2023-02-22T04:21:12;101428.53;;;5.71;100.00
69630;BME280;56857;52.212;5.496;2023-02-22T04:23:38;101429.34;;;5.71;100.00
69630;BME280;56857;52.212;5.496;2023-02-22T04:26:03;101426.72;;;5.71;100.00
69630;BME280;56857;52.212;5.496;2023-02-22T04:28:28;101424.19;;;5.70;100.00
69630;BME280;56857;52.212;5.496;2023-02-22T04:30:53;101419.06;;;5.68;100.00
69630;BME280;56857;52.212;5.496;2023-02-22T04:33:19;101420.16;;;5.66;100.00
69630;BME280;56857;52.212;5.496;2023-02-22T04:35:44;101418.50;;;5.65;100.00
69630;BME280;56857;52.212;5.496;2023-02-22T04:38:10;101415.97;;;5.63;100.00
69630;BME280;56857;52.212;5.496;2023-02-22T04:40:35;101410.84;;;5.62;100.00
69630;BME280;56857;52.212;5.496;2023-02-22T04:43:01;101409.41;;;5.57;100.00
69630;BME280;56857;52.212;5.496;2023-02-22T04:45:26;101405.09;;;5.56;100.00
69630;BME280;56857;52.212;5.496;2023-02-22T04:47:52;101399.84;;;5.56;100.00
69630;BME280;56857;52.212;5.496;2023-02-22T04:50:17;101393.88;;;5.54;100.00
69630;BME280;56857;52.212;5.496;2023-02-22T04:52:42;101394.97;;;5.52;100.00
69630;BME280;56857;52.212;5.496;2023-02-22T04:55:08;101386.13;;;5.53;100.00
69630;BME280;56857;52.212;5.496;2023-02-22T04:57:33;101389.56;;;5.53;100.00
69630;BME280;56857;52.212;5.496;2023-02-22T04:59:59;101387.09;;;5.52;100.00
69630;BME280;56857;52.212;5.496;2023-02-22T05:02:24;101375.69;;;5.51;100.00
69630;BME280;56857;52.212;5.496;2023-02-22T05:04:50;101371.41;;;5.50;100.00
69630;BME280;56857;52.212;5.496;2023-02-22T05:07:16;101371.41;;;5.50;100.00
69630;BME280;56857;52.212;5.496;2023-02-22T05:09:41;101364.50;;;5.49;100.00
69630;BME280;56857;52.212;5.496;2023-02-22T05:12:06;101369.84;;;5.48;100.00
69630;BME280;56857;52.212;5.496;2023-02-22T05:14:32;101364.00;;;5.44;100.00
69630;BME280;56857;52.212;5.496;2023-02-22T05:16:57;101356.25;;;5.43;100.00
69630;BME280;56857;52.212;5.496;2023-02-22T05:19:23;101367.63;;;5.43;100.00
69630;BME280;56857;52.212;5.496;2023-02-22T05:21:49;101366.88;;;5.41;100.00
69630;BME280;56857;52.212;5.496;2023-02-22T05:24:14;101368.69;;;5.41;100.00
69630;BME280;56857;52.212;5.496;2023-02-22T05:26:44;101362.59;;;5.40;100.00
69630;BME280;56857;52.212;5.496;2023-02-22T05:29:10;101356.63;;;5.38;100.00
69630;BME280;56857;52.212;5.496;2023-02-22T05:31:36;101355.94;;;5.36;100.00
69630;BME280;56857;52.212;5.496;2023-02-22T05:34:01;101348.16;;;5.34;100.00
69630;BME280;56857;52.212;5.496;2023-02-22T05:36:27;101343.84;;;5.33;100.00
69630;BME280;56857;52.212;5.496;2023-02-22T05:38:53;101345.50;;;5.34;100.00
69630;BME280;56857;52.212;5.496;2023-02-22T05:41:18;101341.81;;;5.37;100.00
69630;BME280;56857;52.212;5.496;2023-02-22T05:43:44;101341.66;;;5.39;100.00
69630;BME280;56857;52.212;5.496;2023-02-22T05:46:10;101337.13;;;5.41;100.00
69630;BME280;56857;52.212;5.496;2023-02-22T05:48:35;101335.47;;;5.40;100.00
69630;BME280;56857;52.212;5.496;2023-02-22T05:51:01;101335.47;;;5.40;100.00
69630;BME280;56857;52.212;5.496;2023-02-22T05:53:26;101333.53;;;5.42;100.00
69630;BME280;56857;52.212;5.496;2023-02-22T05:55:52;101334.66;;;5.39;100.00
69630;BME280;56857;52.212;5.496;2023-02-22T05:58:17;101331.06;;;5.40;100.00
69630;BME280;56857;52.212;5.496;2023-02-22T06:00:42;101331.06;;;5.40;100.00
69630;BME280;56857;52.212;5.496;2023-02-22T06:03:09;101320.63;;;5.39;100.00
69630;BME280;56857;52.212;5.496;2023-02-22T06:05:35;101324.13;;;5.39;100.00
69630;BME280;56857;52.212;5.496;2023-02-22T06:08:02;101323.50;;;5.35;100.00
69630;BME280;56857;52.212;5.496;2023-02-22T06:10:28;101322.69;;;5.35;100.00
69630;BME280;56857;52.212;5.496;2023-02-22T06:12:54;101316.50;;;5.36;100.00
69630;BME280;56857;52.212;5.496;2023-02-22T06:15:21;101313.25;;;5.32;100.00
69630;BME280;56857;52.212;5.496;2023-02-22T06:17:47;101309.78;;;5.32;100.00
69630;BME280;56857;52.212;5.496;2023-02-22T06:20:15;101312.56;;;5.30;100.00
69630;BME280;56857;52.212;5.496;2023-02-22T06:22:41;101312.56;;;5.30;100.00
69630;BME280;56857;52.212;5.496;2023-02-22T06:25:08;101309.09;;;5.30;100.00
69630;BME280;56857;52.212;5.496;2023-02-22T06:27:33;101308.97;;;5.31;100.00
69630;BME280;56857;52.212;5.496;2023-02-22T06:30:00;101313.13;;;5.34;100.00
69630;BME280;56857;52.212;5.496;2023-02-22T06:32:26;101310.38;;;5.35;100.00
69630;BME280;56857;52.212;5.496;2023-02-22T06:34:52;101314.56;;;5.38;100.00
69630;BME280;56857;52.212;5.496;2023-02-22T06:37:17;101316.25;;;5.39;100.00
69630;BME280;56857;52.212;5.496;2023-02-22T06:39:43;101325.66;;;5.42;100.00
69630;BME280;56857;52.212;5.496;2023-02-22T06:42:09;101325.66;;;5.42;100.00
69630;BME280;56857;52.212;5.496;2023-02-22T06:44:34;101325.78;;;5.40;100.00
69630;BME280;56857;52.212;5.496;2023-02-22T06:46:59;101326.75;;;5.39;100.00
69630;BME280;56857;52.212;5.496;2023-02-22T06:49:26;101323.41;;;5.37;100.00
69630;BME280;56857;52.212;5.496;2023-02-22T06:51:51;101321.84;;;5.34;100.00
69630;BME280;56857;52.212;5.496;2023-02-22T06:54:17;101314.81;;;5.35;100.00
69630;BME280;56857;52.212;5.496;2023-02-22T06:56:43;101316.75;;;5.33;100.00
69630;BME280;56857;52.212;5.496;2023-02-22T06:59:08;101315.88;;;5.32;100.00
69630;BME280;56857;52.212;5.496;2023-02-22T07:01:34;101313.13;;;5.34;100.00
69630;BME280;56857;52.212;5.496;2023-02-22T07:03:59;101308.97;;;5.31;100.00
69630;BME280;56857;52.212;5.496;2023-02-22T07:06:24;101300.09;;;5.32;100.00
69630;BME280;56857;52.212;5.496;2023-02-22T07:08:49;101298.44;;;5.31;100.00
69630;BME280;56857;52.212;5.496;2023-02-22T07:11:16;101303.69;;;5.31;100.00
69630;BME280;56857;52.212;5.496;2023-02-22T07:13:42;101309.69;;;5.33;100.00
69630;BME280;56857;52.212;5.496;2023-02-22T07:16:08;101306.22;;;5.33;100.00
69630;BME280;56857;52.212;5.496;2023-02-22T07:18:33;101306.91;;;5.35;100.00
69630;BME280;56857;52.212;5.496;2023-02-22T07:20:58;101306.66;;;5.38;100.00
69630;BME280;56857;52.212;5.496;2023-02-22T07:23:24;101301.28;;;5.40;100.00
69630;BME280;56857;52.212;5.496;2023-02-22T07:25:49;101296.72;;;5.42;100.00
69630;BME280;56857;52.212;5.496;2023-02-22T07:28:15;101296.72;;;5.42;100.00
69630;BME280;56857;52.212;5.496;2023-02-22T07:30:41;101302.97;;;5.41;100.00
69630;BME280;56857;52.212;5.496;2023-02-22T07:33:09;101302.00;;;5.42;100.00
69630;BME280;56857;52.212;5.496;2023-02-22T07:35:37;101310.59;;;5.44;100.00
69630;BME280;56857;52.212;5.496;2023-02-22T07:38:04;101317.41;;;5.46;100.00
69630;BME280;56857;52.212;5.496;2023-02-22T07:40:30;101315.03;;;5.43;100.00
69630;BME280;56857;52.212;5.496;2023-02-22T07:45:33;101310.00;;;5.40;100.00
69630;BME280;56857;52.212;5.496;2023-02-22T07:48:00;101309.19;;;5.40;100.00
69630;BME280;56857;52.212;5.496;2023-02-22T07:50:27;101312.50;;;5.42;100.00
69630;BME280;56857;52.212;5.496;2023-02-22T07:52:54;101314.31;;;5.41;100.00
69630;BME280;56857;52.212;5.496;2023-02-22T07:55:22;101313.34;;;5.42;100.00
69630;BME280;56857;52.212;5.496;2023-02-22T07:57:49;101313.47;;;5.41;100.00
69630;BME280;56857;52.212;5.496;2023-02-22T08:00:23;101309.78;;;5.43;100.00
69630;BME280;56857;52.212;5.496;2023-02-22T08:02:48;101312.16;;;5.46;100.00
69630;BME280;56857;52.212;5.496;2023-02-22T08:05:14;101322.41;;;5.49;100.00
69630;BME280;56857;52.212;5.496;2023-02-22T08:07:40;101324.06;;;5.50;100.00
69630;BME280;56857;52.212;5.496;2023-02-22T08:10:06;101320.47;;;5.51;100.00
69630;BME280;56857;52.212;5.496;2023-02-22T08:12:37;101319.66;;;5.51;100.00
69630;BME280;56857;52.212;5.496;2023-02-22T08:15:04;101322.41;;;5.49;100.00
69630;BME280;56857;52.212;5.496;2023-02-22T08:17:30;101329.47;;;5.49;100.00
69630;BME280;56857;52.212;5.496;2023-02-22T08:19:55;101325.03;;;5.49;100.00
69630;BME280;56857;52.212;5.496;2023-02-22T08:22:21;101320.63;;;5.50;100.00
69630;BME280;56857;52.212;5.496;2023-02-22T08:24:48;101317.03;;;5.51;100.00
69630;BME280;56857;52.212;5.496;2023-02-22T08:27:14;101312.47;;;5.53;100.00
69630;BME280;56857;52.212;5.496;2023-02-22T08:29:39;101316.78;;;5.54;100.00
69630;BME280;56857;52.212;5.496;2023-02-22T08:32:05;101313.31;;;5.53;100.00
69630;BME280;56857;52.212;5.496;2023-02-22T08:34:30;101308.06;;;5.53;100.00
69630;BME280;56857;52.212;5.496;2023-02-22T08:36:55;101316.91;;;5.52;100.00
69630;BME280;56857;52.212;5.496;2023-02-22T08:39:21;101315.84;;;5.55;100.00
69630;BME280;56857;52.212;5.496;2023-02-22T08:41:46;101313.31;;;5.53;100.00
69630;BME280;56857;52.212;5.496;2023-02-22T08:44:12;101313.44;;;5.52;100.00
69630;BME280;56857;52.212;5.496;2023-02-22T08:46:37;101313.56;;;5.50;100.00
69630;BME280;56857;52.212;5.496;2023-02-22T08:49:02;101315.94;;;5.53;100.00
69630;BME280;56857;52.212;5.496;2023-02-22T08:51:27;101314.72;;;5.57;100.00
69630;BME280;56857;52.212;5.496;2023-02-22T08:53:53;101309.22;;;5.61;100.00
69630;BME280;56857;52.212;5.496;2023-02-22T08:56:19;101307.31;;;5.63;100.00
69630;BME280;56857;52.212;5.496;2023-02-22T08:58:44;101306.22;;;5.65;100.00
69630;BME280;56857;52.212;5.496;2023-02-22T09:01:09;101310.50;;;5.66;100.00
69630;BME280;56857;52.212;5.496;2023-02-22T09:03:35;101317.31;;;5.69;100.00
69630;BME280;56857;52.212;5.496;2023-02-22T09:06:00;101307.63;;;5.69;100.00
69630;BME280;56857;52.212;5.496;2023-02-22T09:08:25;101305.56;;;5.73;100.00
69630;BME280;56857;52.212;5.496;2023-02-22T09:10:51;101304.50;;;5.75;100.00
69630;BME280;56857;52.212;5.496;2023-02-22T09:13:18;101299.13;;;5.77;100.00
69630;BME280;56857;52.212;5.496;2023-02-22T09:15:43;101291.81;;;5.80;100.00
69630;BME280;56857;52.212;5.496;2023-02-22T09:18:11;101288.06;;;5.83;100.00
69630;BME280;56857;52.212;5.496;2023-02-22T09:20:37;101284.25;;;5.87;100.00
69630;BME280;56857;52.212;5.496;2023-02-22T09:23:05;101288.53;;;5.88;100.00
69630;BME280;56857;52.212;5.496;2023-02-22T09:25:31;101283.97;;;5.90;100.00
69630;BME280;56857;52.212;5.496;2023-02-22T09:27:56;101283.50;;;5.96;100.00
69630;BME280;56857;52.212;5.496;2023-02-22T09:30:29;101269.13;;;6.00;100.00
69630;BME280;56857;52.212;5.496;2023-02-22T09:32:58;101267.19;;;6.02;100.00
69630;BME280;56857;52.212;5.496;2023-02-22T09:35:24;101277.22;;;6.09;100.00
69630;BME280;56857;52.212;5.496;2023-02-22T09:37:50;101287.22;;;6.15;100.00
69630;BME280;56857;52.212;5.496;2023-02-22T09:40:17;101287.53;;;6.21;100.00
69630;BME280;56857;52.212;5.496;2023-02-22T09:42:55;101285.47;;;6.25;100.00
69630;BME280;56857;52.212;5.496;2023-02-22T09:45:54;101285.31;;;6.26;100.00
69630;BME280;56857;52.212;5.496;2023-02-22T09:48:15;101281.59;;;6.29;100.00
69630;BME280;56857;52.212;5.496;2023-02-22T09:50:44;101283.88;;;6.34;100.00
69630;BME280;56857;52.212;5.496;2023-02-22T09:55:41;101268.50;;;6.39;100.00
69630;BME280;56857;52.212;5.496;2023-02-22T10:00:40;101258.44;;;6.54;100.00
69630;BME280;56857;52.212;5.496;2023-02-22T10:03:32;101256.94;;;6.61;100.00
69630;BME280;56857;52.212;5.496;2023-02-22T10:06:05;101247.41;;;6.69;100.00
69630;BME280;56857;52.212;5.496;2023-02-22T10:08:36;101242.88;;;6.81;100.00
69630;BME280;56857;52.212;5.496;2023-02-22T10:11:22;101244.41;;;6.93;100.00
69630;BME280;56857;52.212;5.496;2023-02-22T10:16:57;101238.75;;;7.17;100.00
69630;BME280;56857;52.212;5.496;2023-02-22T10:19:54;101237.66;;;7.30;100.00
69630;BME280;56857;52.212;5.496;2023-02-22T10:22:49;101230.28;;;7.43;100.00
69630;BME280;56857;52.212;5.496;2023-02-22T10:25:25;101224.72;;;7.56;100.00
69630;BME280;56857;52.212;5.496;2023-02-22T10:28:02;101211.41;;;7.67;100.00
69630;BME280;56857;52.212;5.496;2023-02-22T10:30:33;101214.03;;;7.77;100.00
69630;BME280;56857;52.212;5.496;2023-02-22T10:33:20;101220.66;;;7.90;100.00
69630;BME280;56857;52.212;5.496;2023-02-22T10:35:47;101225.91;;;8.00;100.00
69630;BME280;56857;52.212;5.496;2023-02-22T10:38:26;101226.84;;;8.09;100.00
69630;BME280;56857;52.212;5.496;2023-02-22T10:41:17;101235.72;;;8.18;100.00
69630;BME280;56857;52.212;5.496;2023-02-22T10:43:43;101229.59;;;8.27;100.00
69630;BME280;56857;52.212;5.496;2023-02-22T10:46:13;101226.91;;;8.36;100.00
69630;BME280;56857;52.212;5.496;2023-02-22T10:48:41;101229.66;;;8.45;100.00
69630;BME280;56857;52.212;5.496;2023-02-22T10:51:08;101228.84;;;8.44;100.00
69630;BME280;56857;52.212;5.496;2023-02-22T10:53:35;101228.00;;;8.44;100.00
69630;BME280;56857;52.212;5.496;2023-02-22T10:58:49;101222.53;;;8.55;100.00
69630;BME280;56857;52.212;5.496;2023-02-22T11:01:21;101234.47;;;8.59;100.00
69630;BME280;56857;52.212;5.496;2023-02-22T11:04:11;101229.59;;;8.64;100.00
69630;BME280;56857;52.212;5.496;2023-02-22T11:06:39;101231.25;;;8.65;100.00
69630;BME280;56857;52.212;5.496;2023-02-22T11:09:06;101226.25;;;8.62;100.00
69630;BME280;56857;52.212;5.496;2023-02-22T11:11:32;101217.94;;;8.57;100.00
69630;BME280;56857;52.212;5.496;2023-02-22T11:13:57;101220.84;;;8.54;100.00
69630;BME280;56857;52.212;5.496;2023-02-22T11:16:32;101215.88;;;8.51;100.00
69630;BME280;56857;52.212;5.496;2023-02-22T11:19:26;101206.97;;;8.52;100.00
69630;BME280;56857;52.212;5.496;2023-02-22T11:21:55;101208.50;;;8.54;100.00
69630;BME280;56857;52.212;5.496;2023-02-22T11:24:22;101209.47;;;8.53;100.00
69630;BME280;56857;52.212;5.496;2023-02-22T11:26:54;101208.63;;;8.53;100.00
69630;BME280;56857;52.212;5.496;2023-02-22T11:29:26;101194.59;;;8.52;100.00
69630;BME280;56857;52.212;5.496;2023-02-22T11:31:52;101201.53;;;8.53;100.00
69630;BME280;56857;52.212;5.496;2023-02-22T11:34:37;101198.38;;;8.50;100.00
69630;BME280;56857;52.212;5.496;2023-02-22T11:39:48;101201.75;;;8.42;100.00
69630;BME280;56857;52.212;5.496;2023-02-22T11:42:27;101193.53;;;8.45;100.00
69630;BME280;56857;52.212;5.496;2023-02-22T11:47:49;101199.06;;;8.52;100.00
69630;BME280;56857;52.212;5.496;2023-02-22T11:50:23;101196.94;;;8.55;100.00
69630;BME280;56857;52.212;5.496;2023-02-22T11:53:03;101203.88;;;8.56;100.00
69630;BME280;56857;52.212;5.496;2023-02-22T12:09:11;101170.88;;;8.70;100.00
69630;BME280;56857;52.212;5.496;2023-02-22T12:11:52;101172.00;;;8.68;100.00
69630;BME280;56857;52.212;5.496;2023-02-22T12:22:36;101171.66;;;8.53;100.00
69630;BME280;56857;52.212;5.496;2023-02-22T12:25:17;101169.84;;;8.53;100.00
69630;BME280;56857;52.212;5.496;2023-02-22T12:27:54;101163.72;;;8.53;100.00
69630;BME280;56857;52.212;5.496;2023-02-22T12:30:42;101174.28;;;8.53;100.00
69630;BME280;56857;52.212;5.496;2023-02-22T12:33:15;101176.09;;;8.52;100.00
69630;BME280;56857;52.212;5.496;2023-02-22T12:35:54;101164.13;;;8.58;100.00
69630;BME280;56857;52.212;5.496;2023-02-22T12:38:33;101164.34;;;8.65;100.00
69630;BME280;56857;52.212;5.496;2023-02-22T12:41:25;101166.41;;;8.71;100.00
69630;BME280;56857;52.212;5.496;2023-02-22T12:44:17;101170.56;;;8.73;100.00
69630;BME280;56857;52.212;5.496;2023-02-22T12:46:49;101169.28;;;8.77;100.00
69630;BME280;56857;52.212;5.496;2023-02-22T12:50:17;101156.41;;;8.82;100.00
69630;BME280;56857;52.212;5.496;2023-02-22T12:55:15;101152.44;;;8.96;100.00
69630;BME280;56857;52.212;5.496;2023-02-22T12:57:50;101149.84;;;9.04;100.00
69630;BME280;56857;52.212;5.496;2023-02-22T13:03:38;101147.97;;;9.15;100.00
69630;BME280;56857;52.212;5.496;2023-02-22T13:06:21;101149.47;;;9.17;100.00
69630;BME280;56857;52.212;5.496;2023-02-22T13:09:06;101149.47;;;9.17;100.00
69630;BME280;56857;52.212;5.496;2023-02-22T13:16:45;101142.91;;;9.21;100.00
69630;BME280;56857;52.212;5.496;2023-02-22T13:19:25;101144.56;;;9.22;100.00
69630;BME280;56857;52.212;5.496;2023-02-22T13:22:03;101143.88;;;9.20;100.00
69630;BME280;56857;52.212;5.496;2023-02-22T13:24:48;101149.34;;;9.19;100.00
69630;BME280;56857;52.212;5.496;2023-02-22T13:29:52;101154.69;;;9.27;100.00
69630;BME280;56857;52.212;5.496;2023-02-22T13:32:30;101151.88;;;9.28;100.00
69630;BME280;56857;52.212;5.496;2023-02-22T13:35:29;101154.22;;;9.32;100.00
69630;BME280;56857;52.212;5.496;2023-02-22T13:50:33;101134.50;;;9.26;100.00
69630;BME280;56857;52.212;5.496;2023-02-22T13:52:40;101131.84;;;9.26;100.00
69630;BME280;56857;52.212;5.496;2023-02-22T13:55:17;101141.47;;;9.27;100.00
69630;BME280;56857;52.212;5.496;2023-02-22T13:57:46;101139.47;;;9.29;100.00
69630;BME280;56857;52.212;5.496;2023-02-22T14:08:06;101128.78;;;9.31;100.00
69630;BME280;56857;52.212;5.496;2023-02-22T14:10:47;101132.69;;;9.26;100.00
69630;BME280;56857;52.212;5.496;2023-02-22T14:13:26;101132.03;;;9.24;100.00
69630;BME280;56857;52.212;5.496;2023-02-22T14:18:42;101150.84;;;9.21;100.00
69630;BME280;56857;52.212;5.496;2023-02-22T14:21:13;101161.56;;;9.20;100.00
69630;BME280;56857;52.212;5.496;2023-02-22T14:23:44;101146.81;;;9.17;100.00
69630;BME280;56857;52.212;5.496;2023-02-22T14:26:29;101145.66;;;9.12;100.00
69630;BME280;56857;52.212;5.496;2023-02-22T14:31:28;101161.34;;;9.13;100.00
69630;BME280;56857;52.212;5.496;2023-02-22T14:34:02;101146.59;;;9.11;100.00
69630;BME280;56857;52.212;5.496;2023-02-22T14:39:28;101147.75;;;9.08;100.00
69630;BME280;56857;52.212;5.496;2023-02-22T14:42:02;101147.75;;;9.08;100.00
69630;BME280;56857;52.212;5.496;2023-02-22T14:47:50;101162.13;;;9.05;100.00
69630;BME280;56857;52.212;5.496;2023-02-22T14:50:24;101154.84;;;9.08;100.00
69630;BME280;56857;52.212;5.496;2023-02-22T14:53:19;101155.41;;;9.11;100.00
69630;BME280;56857;52.212;5.496;2023-02-22T14:56:23;101156.06;;;9.13;100.00
69630;BME280;56857;52.212;5.496;2023-02-22T14:59:14;101153.94;;;9.17;100.00
69630;BME280;56857;52.212;5.496;2023-02-22T15:01:41;101152.13;;;9.17;100.00
69630;BME280;56857;52.212;5.496;2023-02-22T15:06:41;101156.28;;;9.20;100.00